Time;durP1;ratioP1;P1;durP2;ratioP2;P2;SDS_P1;SDS_P2;PMS_P1;PMS_P2;Temp;Humidity;BMP_temperature;BMP_pressure;BME280_temperature;BME280_humidity;BME280_pressure;Samples;Min_cycle;Max_cycle;Signal;HPM_P1;HPM_P2
2022/12/24 00:00:26;;;;;;;72.18;21.60;;;9.00;99.90;;;;;;5052036;28;20483;-70
2022/12/24 00:02:51;;;;;;;82.18;21.77;;;9.00;99.90;;;;;;5034308;28;20116;-66
2022/12/24 00:05:25;;;;;;;86.70;21.77;;;8.90;99.90;;;;;;5040653;28;20601;-67
2022/12/24 00:07:50;;;;;;;79.22;22.63;;;8.80;99.90;;;;;;5043165;28;20049;-66
2022/12/24 00:10:16;;;;;;;90.28;22.77;;;8.80;99.90;;;;;;5039962;28;20435;-67
2022/12/24 00:12:42;;;;;;;91.78;22.17;;;8.60;99.90;;;;;;5038090;28;20037;-67
2022/12/24 00:15:08;;;;;;;78.07;22.38;;;8.80;99.90;;;;;;5041587;28;20068;-66
2022/12/24 00:17:33;;;;;;;79.57;21.75;;;8.80;99.90;;;;;;5042706;28;20045;-67
2022/12/24 00:19:59;;;;;;;72.60;20.33;;;8.70;99.90;;;;;;5037004;28;20534;-67
2022/12/24 00:22:24;;;;;;;62.72;19.77;;;8.60;99.90;;;;;;5042493;28;20037;-69
2022/12/24 00:24:50;;;;;;;49.90;16.40;;;8.60;99.90;;;;;;5057451;28;20055;-66
2022/12/24 00:27:16;;;;;;;51.97;17.02;;;8.80;99.90;;;;;;5040912;28;20049;-66
2022/12/24 00:29:41;;;;;;;51.38;15.68;;;8.60;99.90;;;;;;5038952;28;20036;-66
2022/12/24 00:32:09;;;;;;;43.63;13.93;;;8.80;99.90;;;;;;5037927;28;20037;-66
2022/12/24 00:34:38;;;;;;;42.33;13.60;;;8.60;99.90;;;;;;5041135;28;20098;-69
2022/12/24 00:37:04;;;;;;;37.90;13.68;;;8.70;99.90;;;;;;5045679;28;20037;-66
2022/12/24 00:39:30;;;;;;;33.65;11.35;;;8.60;99.90;;;;;;5040967;28;20068;-67
2022/12/24 00:41:56;;;;;;;44.08;13.00;;;8.60;99.90;;;;;;5044573;28;20122;-66
2022/12/24 00:44:21;;;;;;;45.65;13.68;;;8.60;99.90;;;;;;5040062;28;20037;-66
2022/12/24 00:46:48;;;;;;;34.13;11.85;;;8.60;99.90;;;;;;5043945;28;20135;-65
2022/12/24 00:49:14;;;;;;;30.00;10.40;;;8.60;99.90;;;;;;5039883;28;20129;-66
2022/12/24 00:51:40;;;;;;;34.60;10.45;;;8.70;99.90;;;;;;5035824;28;20419;-65
2022/12/24 00:54:06;;;;;;;36.85;11.68;;;8.60;99.90;;;;;;5042439;28;20033;-68
2022/12/24 00:56:32;;;;;;;35.97;12.07;;;8.60;99.90;;;;;;5044801;28;20068;-68
2022/12/24 00:58:58;;;;;;;29.75;11.30;;;8.70;99.90;;;;;;5033490;28;20037;-66
2022/12/24 01:01:25;;;;;;;38.58;13.40;;;8.80;99.90;;;;;;5039905;28;20064;-65
2022/12/24 01:03:51;;;;;;;44.17;13.32;;;8.80;99.90;;;;;;5043023;28;20055;-67
2022/12/24 01:06:18;;;;;;;33.83;11.75;;;8.80;99.90;;;;;;5045046;28;20120;-64
2022/12/24 01:08:44;;;;;;;33.72;10.40;;;8.90;99.90;;;;;;5034777;28;20060;-67
2022/12/24 01:11:12;;;;;;;39.90;14.55;;;8.80;99.90;;;;;;5041820;28;20055;-67
2022/12/24 01:13:38;;;;;;;46.47;14.68;;;8.90;99.90;;;;;;5043421;28;20048;-65
2022/12/24 01:16:16;;;;;;;35.97;12.80;;;8.90;99.90;;;;;;5042271;28;20049;-67
2022/12/24 01:18:42;;;;;;;34.25;12.07;;;9.00;99.90;;;;;;5039501;28;20041;-65
2022/12/24 01:21:07;;;;;;;31.25;10.50;;;8.90;99.90;;;;;;5044102;28;20037;-68
2022/12/24 01:23:33;;;;;;;33.20;11.57;;;9.00;99.90;;;;;;5045166;28;20041;-66
2022/12/24 01:25:59;;;;;;;23.50;8.98;;;8.90;99.90;;;;;;5043057;28;20041;-68
2022/12/24 01:28:25;;;;;;;30.92;11.05;;;9.00;99.90;;;;;;5041515;28;20048;-66
2022/12/24 01:30:51;;;;;;;26.83;8.80;;;9.00;99.90;;;;;;5038375;28;20440;-65
2022/12/24 01:33:16;;;;;;;28.40;10.40;;;9.00;99.90;;;;;;5046513;28;20551;-66
2022/12/24 01:35:44;;;;;;;31.50;9.38;;;9.00;99.90;;;;;;5037958;28;20033;-65
2022/12/24 01:38:11;;;;;;;29.80;7.18;;;8.90;99.90;;;;;;5043525;28;20049;-68
2022/12/24 01:43:29;;;;;;;37.42;7.47;;;9.10;99.90;;;;;;5042207;28;20099;-67
2022/12/24 01:46:03;;;;;;;42.90;7.00;;;9.10;99.90;;;;;;5046238;28;20045;-65
2022/12/24 01:48:40;;;;;;;58.13;8.73;;;9.00;99.90;;;;;;5039491;28;20033;-65
2022/12/24 01:51:25;;;;;;;56.80;7.93;;;8.90;99.90;;;;;;5040012;28;20040;-67
2022/12/24 01:54:18;;;;;;;60.45;8.27;;;8.90;99.90;;;;;;5048554;28;20037;-65
2022/12/24 01:56:51;;;;;;;65.97;7.15;;;8.90;99.90;;;;;;5039496;28;20049;-65
2022/12/24 01:59:18;;;;;;;59.53;7.18;;;8.80;99.90;;;;;;5044731;28;20079;-67
2022/12/24 02:01:47;;;;;;;68.65;8.52;;;8.90;99.90;;;;;;5046545;28;20040;-66
2022/12/24 02:04:37;;;;;;;84.57;8.75;;;8.80;99.90;;;;;;5021677;28;20395;-67
2022/12/24 02:07:03;;;;;;;68.75;7.97;;;8.80;99.90;;;;;;5040926;28;20044;-68
2022/12/24 02:09:30;;;;;;;75.90;9.75;;;8.80;99.90;;;;;;5045182;28;20106;-66
2022/12/24 02:11:57;;;;;;;89.28;9.52;;;8.80;99.90;;;;;;5059922;28;20098;-66
2022/12/24 02:14:25;;;;;;;85.70;9.57;;;8.70;99.90;;;;;;5042638;28;20061;-67
2022/12/24 02:17:09;;;;;;;66.35;7.60;;;8.80;99.90;;;;;;5043675;28;20108;-64
2022/12/24 02:19:53;;;;;;;93.10;10.00;;;8.90;99.90;;;;;;5043163;28;20047;-64
2022/12/24 02:22:41;;;;;;;71.07;8.50;;;8.90;99.90;;;;;;5036436;28;20079;-69
2022/12/24 02:25:27;;;;;;;75.70;10.15;;;9.00;99.90;;;;;;5055125;28;20053;-65
2022/12/24 02:28:13;;;;;;;79.22;8.98;;;9.10;99.90;;;;;;5044311;28;20049;-67
2022/12/24 02:30:45;;;;;;;72.10;9.23;;;9.10;99.90;;;;;;5026922;28;20116;-65
2022/12/24 02:33:40;;;;;;;68.35;8.77;;;9.20;99.90;;;;;;5053655;28;20038;-66
2022/12/24 02:36:10;;;;;;;71.63;9.68;;;9.20;99.90;;;;;;5037444;28;20030;-66
2022/12/24 02:38:44;;;;;;;80.15;9.15;;;9.30;99.90;;;;;;5044990;28;20040;-65
2022/12/24 02:42:04;;;;;;;64.63;7.72;;;9.20;99.90;;;;;;5045807;28;20041;-67
2022/12/24 02:44:21;;;;;;;73.65;9.20;;;9.20;99.90;;;;;;5039127;28;20056;-66
2022/12/24 02:46:48;;;;;;;76.97;9.38;;;9.30;99.90;;;;;;5056865;28;20413;-66
2022/12/24 02:49:14;;;;;;;82.30;9.82;;;9.30;99.90;;;;;;5060088;28;20076;-66
2022/12/24 02:51:39;;;;;;;68.53;8.45;;;9.30;99.90;;;;;;5040411;28;20065;-68
2022/12/24 02:54:05;;;;;;;69.00;8.25;;;9.30;99.90;;;;;;5034576;28;20092;-65
2022/12/24 02:56:58;;;;;;;61.55;7.18;;;9.30;99.90;;;;;;5040834;28;20802;-65
2022/12/24 02:59:36;;;;;;;65.60;7.65;;;9.30;99.90;;;;;;5039272;28;20502;-68
2022/12/24 03:02:36;;;;;;;79.57;6.97;;;9.30;99.90;;;;;;5035295;28;20046;-66
2022/12/24 03:05:22;;;;;;;68.68;9.05;;;9.30;99.90;;;;;;5039107;28;20475;-64
2022/12/24 03:08:00;;;;;;;65.57;8.35;;;9.20;99.90;;;;;;5047041;28;20045;-66
2022/12/24 03:10:33;;;;;;;67.07;8.63;;;9.20;99.90;;;;;;5029205;28;20043;-66
2022/12/24 03:13:04;;;;;;;75.63;9.27;;;9.20;99.90;;;;;;5039197;28;20045;-67
2022/12/24 03:15:31;;;;;;;55.72;6.75;;;9.10;99.90;;;;;;5034825;28;20040;-65
2022/12/24 03:17:59;;;;;;;65.68;7.95;;;9.10;99.90;;;;;;5043463;28;20128;-64
2022/12/24 03:20:38;;;;;;;66.40;6.82;;;9.00;99.90;;;;;;5029320;28;20086;-65
2022/12/24 03:23:04;;;;;;;68.45;9.07;;;9.00;99.90;;;;;;5038212;28;20044;-65
2022/12/24 03:25:32;;;;;;;67.38;7.20;;;9.00;99.90;;;;;;5032312;28;20135;-67
2022/12/24 03:28:01;;;;;;;57.33;7.20;;;9.00;99.90;;;;;;5028361;28;20095;-63
2022/12/24 03:30:27;;;;;;;72.78;9.65;;;9.00;99.90;;;;;;5042552;28;20468;-62
2022/12/24 03:32:53;;;;;;;62.40;7.93;;;9.10;99.90;;;;;;5042774;28;20083;-66
2022/12/24 03:35:19;;;;;;;70.00;8.93;;;9.00;99.90;;;;;;5042743;28;20128;-65
2022/12/24 03:37:44;;;;;;;77.13;8.73;;;9.00;99.90;;;;;;5026328;28;20106;-66
2022/12/24 03:40:10;;;;;;;73.70;8.57;;;9.10;99.90;;;;;;5038687;28;20068;-67
2022/12/24 03:42:36;;;;;;;69.95;8.48;;;9.10;99.90;;;;;;5036174;28;20045;-63
2022/12/24 03:45:02;;;;;;;58.78;6.43;;;9.00;99.90;;;;;;5039357;28;20059;-67
2022/12/24 03:47:29;;;;;;;80.85;8.45;;;9.00;99.90;;;;;;5038923;28;20171;-64
2022/12/24 03:49:55;;;;;;;78.05;7.88;;;9.10;99.90;;;;;;5058878;28;20044;-66
2022/12/24 03:52:20;;;;;;;61.97;7.85;;;9.10;99.90;;;;;;5041311;28;20041;-66
2022/12/24 03:54:46;;;;;;;70.43;8.18;;;9.10;99.90;;;;;;5037225;28;20048;-67
2022/12/24 03:57:11;;;;;;;71.07;9.48;;;9.10;99.90;;;;;;5043226;28;20135;-65
2022/12/24 03:59:37;;;;;;;71.80;9.05;;;9.20;99.90;;;;;;5036039;28;20400;-67
2022/12/24 04:02:02;;;;;;;70.78;8.30;;;9.20;99.90;;;;;;5034236;28;20118;-65
2022/12/24 04:04:28;;;;;;;92.95;9.05;;;9.10;99.90;;;;;;5040061;28;20049;-65
2022/12/24 04:06:53;;;;;;;81.40;8.80;;;9.20;99.90;;;;;;5038342;28;20048;-67
2022/12/24 04:09:19;;;;;;;85.85;10.60;;;9.10;99.90;;;;;;5028317;28;20598;-67
2022/12/24 04:11:45;;;;;;;72.70;8.13;;;9.20;99.90;;;;;;5041990;28;20055;-66
2022/12/24 04:14:10;;;;;;;67.40;7.22;;;9.10;99.90;;;;;;5045180;28;20127;-63
2022/12/24 04:16:36;;;;;;;80.53;10.15;;;9.20;99.90;;;;;;5039740;28;20051;-66
2022/12/24 04:19:01;;;;;;;69.50;7.53;;;9.20;99.90;;;;;;5042993;28;20037;-66
2022/12/24 04:21:27;;;;;;;83.82;9.88;;;9.20;99.90;;;;;;5031729;28;20041;-67
2022/12/24 04:23:53;;;;;;;84.38;8.75;;;9.20;99.90;;;;;;5032139;28;20502;-67
2022/12/24 04:26:18;;;;;;;73.35;8.15;;;9.10;99.90;;;;;;5044577;28;20044;-63
2022/12/24 04:28:44;;;;;;;74.15;7.47;;;9.10;99.90;;;;;;5043393;28;20049;-65
2022/12/24 04:31:13;;;;;;;73.43;8.60;;;9.10;99.90;;;;;;5043968;28;20044;-67
2022/12/24 04:33:39;;;;;;;67.28;8.50;;;9.10;99.90;;;;;;5044812;28;20487;-66
2022/12/24 04:36:06;;;;;;;83.78;9.68;;;9.10;99.90;;;;;;5056527;28;20029;-65
2022/12/24 04:38:33;;;;;;;76.72;9.80;;;9.10;99.90;;;;;;5043753;28;20045;-64
2022/12/24 04:41:04;;;;;;;73.35;8.05;;;9.10;99.90;;;;;;5046632;28;20063;-65
2022/12/24 04:43:31;;;;;;;82.10;8.40;;;9.10;99.90;;;;;;5046369;28;20097;-68
2022/12/24 04:46:10;;;;;;;88.03;9.20;;;9.10;99.90;;;;;;5044528;28;20064;-66
2022/12/24 04:48:36;;;;;;;79.07;8.85;;;9.00;99.90;;;;;;5043114;28;20041;-66
2022/12/24 04:51:04;;;;;;;71.65;9.60;;;9.10;99.90;;;;;;5046801;28;20045;-64
2022/12/24 04:53:31;;;;;;;93.65;9.45;;;9.10;99.90;;;;;;5042197;28;20196;-65
2022/12/24 04:55:57;;;;;;;66.25;8.95;;;9.10;99.90;;;;;;5049546;28;20033;-67
2022/12/24 04:58:23;;;;;;;76.68;8.50;;;9.10;99.90;;;;;;5024350;28;20083;-67
2022/12/24 05:00:49;;;;;;;69.97;8.63;;;9.10;99.90;;;;;;5044181;28;20106;-66
2022/12/24 05:03:14;;;;;;;76.43;8.52;;;9.00;99.90;;;;;;5040163;28;20519;-67
2022/12/24 05:05:40;;;;;;;80.57;7.88;;;9.00;99.90;;;;;;5044912;28;20159;-67
2022/12/24 05:08:05;;;;;;;66.13;7.15;;;9.10;99.90;;;;;;5047607;28;20575;-68
2022/12/24 05:10:31;;;;;;;78.32;9.55;;;9.10;99.90;;;;;;5043079;28;20057;-65
2022/12/24 05:12:57;;;;;;;78.45;8.73;;;9.10;99.90;;;;;;5039957;28;20045;-66
2022/12/24 05:15:23;;;;;;;81.13;8.88;;;9.10;99.90;;;;;;5041468;28;20057;-67
2022/12/24 05:17:49;;;;;;;88.57;8.98;;;9.00;99.90;;;;;;5037032;28;20086;-66
2022/12/24 05:20:15;;;;;;;82.47;8.38;;;9.00;99.90;;;;;;5044109;28;20095;-67
2022/12/24 05:28:15;;;;;;;80.75;8.68;;;8.90;99.90;;;;;;5037829;28;20052;-68
2022/12/24 05:30:41;;;;;;;78.03;8.05;;;9.00;99.90;;;;;;5059885;28;20554;-68
2022/12/24 05:33:06;;;;;;;81.57;10.02;;;9.00;99.90;;;;;;5029429;28;20578;-66
2022/12/24 05:35:32;;;;;;;90.18;8.73;;;8.90;99.90;;;;;;5035792;28;20048;-69
2022/12/24 05:37:58;;;;;;;93.15;9.15;;;8.80;99.90;;;;;;5041464;28;20033;-68
2022/12/24 05:40:23;;;;;;;88.50;8.50;;;8.90;99.90;;;;;;5045070;28;20040;-67
2022/12/24 05:42:49;;;;;;;85.13;8.40;;;8.90;99.90;;;;;;5044672;28;20037;-68
2022/12/24 05:45:15;;;;;;;82.03;9.15;;;9.00;99.90;;;;;;5042841;28;20036;-65
2022/12/24 05:47:41;;;;;;;64.15;7.35;;;9.00;99.90;;;;;;5035421;28;20142;-68
2022/12/24 05:50:07;;;;;;;74.55;8.00;;;9.00;99.90;;;;;;5042439;28;20041;-69
2022/12/24 05:52:33;;;;;;;78.57;7.45;;;9.00;99.90;;;;;;5023248;28;20045;-70
2022/12/24 05:54:58;;;;;;;88.30;9.23;;;9.00;99.90;;;;;;5046921;28;20400;-67
2022/12/24 05:57:24;;;;;;;78.88;8.50;;;9.00;99.90;;;;;;5039724;28;20033;-66
2022/12/24 05:59:49;;;;;;;79.45;7.88;;;8.90;99.90;;;;;;5040399;28;20041;-69
2022/12/24 06:02:15;;;;;;;84.72;9.63;;;8.90;99.90;;;;;;5037897;28;20492;-65
2022/12/24 06:04:41;;;;;;;71.53;8.07;;;8.90;99.90;;;;;;5057440;28;20071;-68
2022/12/24 06:07:06;;;;;;;96.07;9.27;;;8.90;99.90;;;;;;5046957;28;20090;-64
2022/12/24 06:09:32;;;;;;;80.43;7.50;;;9.00;99.90;;;;;;5036285;28;20052;-68
2022/12/24 06:11:57;;;;;;;67.95;7.68;;;8.90;99.90;;;;;;5033796;28;20549;-69
2022/12/24 06:14:23;;;;;;;65.93;7.25;;;8.80;99.90;;;;;;5044855;28;20071;-66
2022/12/24 06:16:49;;;;;;;67.53;7.47;;;8.80;99.90;;;;;;5059639;28;20068;-65
2022/12/24 06:19:14;;;;;;;74.00;8.27;;;8.80;99.90;;;;;;5065716;28;20037;-70
2022/12/24 06:21:40;;;;;;;75.78;8.73;;;8.90;99.90;;;;;;5039431;28;20484;-70
2022/12/24 06:24:06;;;;;;;58.95;6.60;;;8.90;99.90;;;;;;5047312;28;20076;-69
2022/12/24 06:26:31;;;;;;;68.68;7.13;;;8.90;99.90;;;;;;5039921;28;20045;-69
2022/12/24 06:28:57;;;;;;;68.25;7.47;;;8.80;99.90;;;;;;5046705;28;20041;-68
2022/12/24 06:31:22;;;;;;;66.53;6.53;;;8.80;99.90;;;;;;5052409;28;20042;-68
2022/12/24 06:33:49;;;;;;;65.35;7.38;;;8.80;99.90;;;;;;5064502;28;20399;-69
2022/12/24 06:36:22;;;;;;;65.32;6.63;;;8.70;99.90;;;;;;5040757;28;20045;-67
2022/12/24 06:38:48;;;;;;;66.13;7.70;;;8.60;99.90;;;;;;5039802;28;20044;-68
2022/12/24 06:41:15;;;;;;;63.83;7.55;;;8.70;99.90;;;;;;5023812;28;20483;-68
2022/12/24 06:43:46;;;;;;;62.72;6.85;;;8.60;99.90;;;;;;5047131;28;20057;-69
2022/12/24 06:46:12;;;;;;;65.15;7.32;;;8.60;99.90;;;;;;5043415;28;20037;-68
2022/12/24 06:48:37;;;;;;;80.03;7.43;;;8.70;99.90;;;;;;5041505;28;20044;-69
2022/12/24 06:51:03;;;;;;;57.25;6.82;;;8.50;99.90;;;;;;5048463;28;20429;-68
2022/12/24 06:53:29;;;;;;;64.55;7.20;;;8.60;99.90;;;;;;5045563;28;20041;-69
2022/12/24 06:56:06;;;;;;;57.38;6.97;;;8.50;99.90;;;;;;5061017;28;20044;-67
2022/12/24 06:58:33;;;;;;;53.42;6.72;;;8.50;99.90;;;;;;5030120;28;20124;-68
2022/12/24 07:01:03;;;;;;;52.22;6.85;;;8.50;99.90;;;;;;5049051;28;20053;-67
2022/12/24 07:03:29;;;;;;;74.05;7.25;;;8.50;99.90;;;;;;5060929;28;20040;-67
2022/12/24 07:05:54;;;;;;;54.83;7.07;;;8.50;99.90;;;;;;5047136;28;20098;-68
2022/12/24 07:08:20;;;;;;;63.53;7.35;;;8.60;99.90;;;;;;5045891;28;20040;-68
2022/12/24 07:10:48;;;;;;;60.75;7.43;;;8.50;99.90;;;;;;5047883;28;20098;-68
2022/12/24 07:13:14;;;;;;;65.10;6.65;;;8.60;99.90;;;;;;5047400;28;20080;-68
2022/12/24 07:15:39;;;;;;;66.45;7.22;;;8.50;99.90;;;;;;5044687;28;20052;-67
2022/12/24 07:18:05;;;;;;;60.38;6.75;;;8.40;99.90;;;;;;5011805;28;20516;-69
2022/12/24 07:20:30;;;;;;;71.85;7.07;;;8.40;99.90;;;;;;5041502;28;20551;-69
2022/12/24 07:22:56;;;;;;;55.55;6.63;;;8.60;99.90;;;;;;5043645;28;20048;-68
2022/12/24 07:25:21;;;;;;;57.75;6.60;;;8.50;99.90;;;;;;5038874;28;20037;-68
2022/12/24 07:27:47;;;;;;;71.53;7.22;;;8.60;99.90;;;;;;5036347;28;20026;-69
2022/12/24 07:30:13;;;;;;;55.78;5.75;;;8.50;99.90;;;;;;5039084;28;20037;-69
2022/12/24 07:32:38;;;;;;;63.08;6.53;;;8.60;99.90;;;;;;5037519;28;20108;-69
2022/12/24 07:35:04;;;;;;;65.60;6.05;;;8.50;99.90;;;;;;5041258;28;20064;-68
2022/12/24 07:37:30;;;;;;;64.63;6.95;;;8.50;99.90;;;;;;5039041;28;20040;-68
2022/12/24 07:39:56;;;;;;;72.00;7.72;;;8.60;99.90;;;;;;5037922;28;20036;-68
2022/12/24 07:42:21;;;;;;;78.38;6.80;;;8.50;99.90;;;;;;5041587;28;20384;-69
2022/12/24 07:44:47;;;;;;;82.80;8.40;;;8.60;99.90;;;;;;5039568;28;20091;-69
2022/12/24 07:47:12;;;;;;;60.10;8.20;;;8.60;99.90;;;;;;5042444;28;20044;-69
2022/12/24 07:49:38;;;;;;;67.03;7.47;;;8.70;99.90;;;;;;5036063;28;20480;-69
2022/12/24 07:52:04;;;;;;;84.68;7.13;;;8.60;99.90;;;;;;5037952;28;20115;-69
2022/12/24 07:54:29;;;;;;;73.68;7.60;;;8.60;99.90;;;;;;5038212;28;20045;-69
2022/12/24 07:56:55;;;;;;;59.45;7.47;;;8.60;99.90;;;;;;5023824;28;20041;-68
2022/12/24 07:59:21;;;;;;;61.65;8.27;;;8.60;99.90;;;;;;5020921;28;20041;-69
2022/12/24 08:01:46;;;;;;;73.35;7.85;;;8.70;99.90;;;;;;5036235;28;20163;-68
2022/12/24 08:04:12;;;;;;;61.58;7.53;;;8.70;99.90;;;;;;5039999;28;20325;-69
2022/12/24 08:06:37;;;;;;;69.95;7.68;;;8.70;99.90;;;;;;5041831;28;20045;-69
2022/12/24 08:09:03;;;;;;;59.63;8.50;;;8.60;99.90;;;;;;5037108;28;20069;-68
2022/12/24 08:11:29;;;;;;;76.47;8.18;;;8.80;99.90;;;;;;5037506;28;20037;-69
2022/12/24 08:13:55;;;;;;;79.35;8.70;;;8.70;99.90;;;;;;5039255;28;20033;-68
2022/12/24 08:16:20;;;;;;;68.15;8.13;;;8.80;99.90;;;;;;5048320;28;20033;-69
2022/12/24 08:18:46;;;;;;;74.30;8.20;;;8.70;99.90;;;;;;5044489;28;20483;-70
2022/12/24 08:21:12;;;;;;;66.00;8.65;;;8.80;99.90;;;;;;5043526;28;20067;-68
2022/12/24 08:23:37;;;;;;;72.35;8.18;;;8.80;99.90;;;;;;5045330;28;20118;-69
2022/12/24 08:26:06;;;;;;;79.47;8.52;;;8.80;99.90;;;;;;5048092;28;20036;-69
2022/12/24 08:28:32;;;;;;;67.95;7.55;;;8.80;99.90;;;;;;5046845;28;20049;-69
2022/12/24 08:30:58;;;;;;;77.95;8.52;;;8.80;99.90;;;;;;5042651;28;20102;-70
2022/12/24 08:33:24;;;;;;;63.42;8.00;;;9.00;99.90;;;;;;5043760;28;20036;-69
2022/12/24 08:35:51;;;;;;;72.97;8.10;;;8.90;99.90;;;;;;5037563;28;20110;-68
2022/12/24 08:38:17;;;;;;;100.07;10.45;;;9.00;99.90;;;;;;5040324;28;20045;-68
2022/12/24 08:40:43;;;;;;;65.95;8.52;;;8.90;99.90;;;;;;5046698;28;20040;-70
2022/12/24 08:43:09;;;;;;;80.93;9.98;;;8.90;99.90;;;;;;5043929;28;20449;-69
2022/12/24 08:45:34;;;;;;;71.07;9.20;;;9.00;99.90;;;;;;5043522;28;20041;-70
2022/12/24 08:48:00;;;;;;;73.25;10.20;;;9.00;99.90;;;;;;5037312;28;20102;-69
2022/12/24 08:50:27;;;;;;;84.85;9.40;;;9.10;99.90;;;;;;5043908;28;20043;-69
2022/12/24 08:52:53;;;;;;;89.40;9.85;;;9.10;99.90;;;;;;5039351;28;20053;-69
2022/12/24 08:55:18;;;;;;;75.80;9.25;;;9.20;99.90;;;;;;5044487;28;20387;-69
2022/12/24 08:57:44;;;;;;;71.38;9.13;;;9.10;99.90;;;;;;5048561;28;20453;-67
2022/12/24 09:00:11;;;;;;;88.05;11.20;;;9.20;99.90;;;;;;5044534;28;20041;-68
2022/12/24 09:02:37;;;;;;;80.30;9.70;;;9.20;99.90;;;;;;5018694;28;20079;-67
2022/12/24 09:05:02;;;;;;;86.68;10.18;;;9.20;99.90;;;;;;5039212;28;20069;-67
2022/12/24 09:07:28;;;;;;;80.40;9.50;;;9.20;99.90;;;;;;5039916;28;20041;-66
2022/12/24 09:09:54;;;;;;;75.40;9.23;;;9.30;99.90;;;;;;5041085;28;20091;-65
2022/12/24 09:12:19;;;;;;;92.68;10.52;;;9.20;99.90;;;;;;5043482;28;20045;-66
2022/12/24 09:14:45;;;;;;;92.88;10.57;;;9.20;99.90;;;;;;5039480;28;20110;-66
2022/12/24 09:17:10;;;;;;;76.50;9.75;;;9.30;99.90;;;;;;5040323;28;20037;-66
2022/12/24 09:19:36;;;;;;;89.18;9.68;;;9.30;99.90;;;;;;5042252;28;20506;-66
2022/12/24 09:22:02;;;;;;;81.68;9.20;;;9.50;99.90;;;;;;5042870;28;20113;-66
2022/12/24 09:24:28;;;;;;;84.90;11.35;;;9.50;99.90;;;;;;5043542;28;20139;-66
2022/12/24 09:26:53;;;;;;;82.82;10.43;;;9.50;99.90;;;;;;5042222;28;20534;-67
2022/12/24 09:29:19;;;;;;;86.30;10.35;;;9.70;99.90;;;;;;5044411;28;20040;-67
2022/12/24 09:31:44;;;;;;;101.78;10.98;;;9.70;99.90;;;;;;5039334;28;20045;-67
2022/12/24 09:34:10;;;;;;;100.43;10.00;;;9.50;99.90;;;;;;5052311;28;20041;-68
2022/12/24 09:36:36;;;;;;;86.75;11.82;;;9.50;99.90;;;;;;5044304;28;20090;-64
2022/12/24 09:39:01;;;;;;;84.05;9.18;;;9.40;99.90;;;;;;5043463;28;20406;-66
2022/12/24 09:41:52;;;;;;;85.60;9.73;;;9.40;99.90;;;;;;5034349;28;20044;-67
2022/12/24 09:44:25;;;;;;;79.72;10.25;;;9.50;99.90;;;;;;5044945;28;20041;-66
2022/12/24 09:46:52;;;;;;;81.18;9.65;;;9.40;99.90;;;;;;5044827;28;20098;-64
2022/12/24 09:49:23;;;;;;;75.22;9.68;;;9.30;99.90;;;;;;5045722;28;20044;-65
2022/12/24 09:51:51;;;;;;;80.53;10.32;;;9.50;99.90;;;;;;5044321;28;20098;-67
2022/12/24 09:54:25;;;;;;;76.80;9.40;;;9.50;99.90;;;;;;5048127;28;20055;-66
2022/12/24 09:56:52;;;;;;;71.90;9.75;;;9.50;99.90;;;;;;5047985;28;20045;-66
2022/12/24 09:59:24;;;;;;;56.85;8.15;;;9.70;99.90;;;;;;5068042;28;20402;-67
2022/12/24 10:01:52;;;;;;;79.75;8.90;;;9.60;99.90;;;;;;5046836;28;20037;-68
2022/12/24 10:04:22;;;;;;;66.25;8.20;;;9.60;99.90;;;;;;5037063;28;20063;-68
2022/12/24 10:06:56;;;;;;;75.72;9.27;;;9.70;99.90;;;;;;5048291;28;20063;-67
2022/12/24 10:09:57;;;;;;;65.90;8.30;;;9.80;99.90;;;;;;5048306;28;20100;-65
2022/12/24 10:12:38;;;;;;;84.97;9.80;;;9.80;99.90;;;;;;5042103;28;20124;-67
2022/12/24 10:15:23;;;;;;;74.05;8.80;;;9.70;99.90;;;;;;5075713;28;20446;-65
2022/12/24 10:18:07;;;;;;;95.38;9.52;;;9.80;99.90;;;;;;5042747;28;20087;-65
2022/12/24 10:20:44;;;;;;;81.15;10.68;;;9.70;99.90;;;;;;5029319;28;20063;-65
2022/12/24 10:23:19;;;;;;;64.82;8.60;;;9.80;99.90;;;;;;5040491;28;20041;-66
2022/12/24 10:26:17;;;;;;;73.03;9.07;;;9.60;99.90;;;;;;5056109;28;20032;-65
2022/12/24 10:28:53;;;;;;;78.22;7.82;;;9.60;99.90;;;;;;5033755;28;20051;-65
2022/12/24 10:31:24;;;;;;;88.78;9.40;;;9.60;99.90;;;;;;5027388;28;20045;-65
2022/12/24 10:33:55;;;;;;;71.05;9.88;;;9.60;99.90;;;;;;5040034;28;20044;-64
2022/12/24 10:36:26;;;;;;;80.70;9.38;;;9.60;99.90;;;;;;5057715;28;20080;-64
2022/12/24 10:38:52;;;;;;;74.20;8.35;;;9.70;99.90;;;;;;5042683;28;20138;-66
2022/12/24 10:41:18;;;;;;;84.57;9.05;;;9.70;99.90;;;;;;5039297;28;20515;-65
2022/12/24 10:43:45;;;;;;;84.70;9.05;;;9.80;99.90;;;;;;5041979;28;20040;-65
2022/12/24 10:46:22;;;;;;;70.28;9.93;;;9.60;99.90;;;;;;5041711;28;20063;-65
2022/12/24 10:49:00;;;;;;;79.82;9.90;;;9.60;99.90;;;;;;5041526;28;20506;-65
2022/12/24 10:51:44;;;;;;;72.93;8.82;;;9.70;99.90;;;;;;5044983;28;20048;-66
2022/12/24 10:54:17;;;;;;;88.07;9.60;;;9.70;99.90;;;;;;5041196;28;20079;-65
2022/12/24 10:56:49;;;;;;;97.65;10.45;;;9.60;99.90;;;;;;5038226;28;20040;-65
2022/12/24 10:59:41;;;;;;;81.25;9.70;;;9.60;99.90;;;;;;5039793;28;20131;-66
2022/12/24 11:02:27;;;;;;;87.53;10.47;;;9.60;99.90;;;;;;5040457;28;20033;-67
2022/12/24 11:04:53;;;;;;;76.57;9.15;;;9.60;99.90;;;;;;5044222;28;20102;-67
2022/12/24 11:07:21;;;;;;;92.72;10.45;;;9.70;99.90;;;;;;5039727;28;20487;-67
2022/12/24 11:10:21;;;;;;;83.43;10.27;;;9.60;99.90;;;;;;5034350;28;20049;-66
2022/12/24 11:12:48;;;;;;;82.07;10.40;;;9.70;99.90;;;;;;5046177;28;20517;-67
2022/12/24 11:15:23;;;;;;;70.43;8.90;;;9.60;99.90;;;;;;5049275;28;20033;-69
2022/12/24 11:17:53;;;;;;;87.03;10.05;;;9.70;99.90;;;;;;5047250;28;20033;-67
2022/12/24 11:20:25;;;;;;;70.13;8.65;;;9.70;99.90;;;;;;5037171;28;20045;-66
2022/12/24 11:22:50;;;;;;;65.93;9.53;;;9.60;99.90;;;;;;5041598;28;20033;-66
2022/12/24 11:25:28;;;;;;;82.00;9.35;;;9.60;99.90;;;;;;5037906;28;20651;-67
2022/12/24 11:27:55;;;;;;;91.28;10.07;;;9.60;99.90;;;;;;5045753;28;20510;-66
2022/12/24 11:30:31;;;;;;;71.97;8.68;;;9.60;99.90;;;;;;5038598;28;20132;-67
2022/12/24 11:32:59;;;;;;;65.63;9.23;;;9.70;99.90;;;;;;5041072;28;20067;-64
2022/12/24 11:35:25;;;;;;;70.07;7.90;;;9.70;99.90;;;;;;5040884;28;20037;-66
2022/12/24 11:38:00;;;;;;;71.68;8.10;;;9.70;99.90;;;;;;5042125;28;20087;-65
2022/12/24 11:40:40;;;;;;;70.22;8.32;;;9.70;99.90;;;;;;5041550;28;20064;-66
2022/12/24 11:43:14;;;;;;;73.38;8.48;;;9.70;99.90;;;;;;5042264;28;20098;-67
2022/12/24 11:45:54;;;;;;;76.07;9.02;;;9.70;99.90;;;;;;5026737;28;20060;-65
2022/12/24 11:48:33;;;;;;;72.07;8.65;;;9.70;99.90;;;;;;5039171;28;20084;-66
2022/12/24 11:51:05;;;;;;;71.15;8.18;;;9.70;99.90;;;;;;5034192;28;20480;-66
2022/12/24 11:53:42;;;;;;;66.05;6.80;;;9.70;99.90;;;;;;5043909;28;20056;-67
2022/12/24 11:56:32;;;;;;;59.08;7.47;;;9.60;99.90;;;;;;5051628;28;20052;-65
2022/12/24 11:59:23;;;;;;;57.78;6.90;;;9.60;99.90;;;;;;5059113;28;20067;-66
2022/12/24 12:02:10;;;;;;;67.45;7.72;;;9.60;99.90;;;;;;5045751;28;20091;-66
2022/12/24 12:04:39;;;;;;;67.85;6.82;;;9.60;99.90;;;;;;5023849;28;20053;-66
2022/12/24 12:07:21;;;;;;;74.70;7.85;;;9.60;99.90;;;;;;5054993;28;20526;-66
2022/12/24 12:09:53;;;;;;;63.93;7.53;;;9.60;99.90;;;;;;5052651;28;20490;-66
2022/12/24 12:12:27;;;;;;;66.85;7.78;;;9.60;99.90;;;;;;5045126;28;20087;-65
2022/12/24 12:15:00;;;;;;;76.78;8.48;;;9.60;99.90;;;;;;5030720;28;20459;-66
2022/12/24 12:17:50;;;;;;;55.42;7.70;;;9.70;99.90;;;;;;5049311;28;20071;-66
2022/12/24 12:20:51;;;;;;;66.72;8.27;;;9.80;99.90;;;;;;5046039;28;20151;-65
2022/12/24 12:23:26;;;;;;;67.30;8.27;;;9.80;99.90;;;;;;5046534;28;20063;-66
2022/12/24 12:26:11;;;;;;;49.22;6.57;;;9.70;99.90;;;;;;5056813;28;20040;-64
2022/12/24 12:28:48;;;;;;;59.00;8.15;;;9.80;99.90;;;;;;5042286;28;20116;-64
2022/12/24 12:31:46;;;;;;;58.63;7.32;;;9.80;99.90;;;;;;5057075;28;20083;-64
2022/12/24 12:34:14;;;;;;;51.05;8.95;;;9.90;99.90;;;;;;5059548;28;20048;-64
2022/12/24 12:36:47;;;;;;;54.80;7.95;;;10.10;99.90;;;;;;5050713;28;20124;-66
2022/12/24 12:39:16;;;;;;;53.45;6.93;;;10.00;99.90;;;;;;5036764;28;20033;-65
2022/12/24 12:42:23;;;;;;;60.15;7.68;;;10.00;99.90;;;;;;5064957;28;20037;-68
2022/12/24 12:45:16;;;;;;;59.83;8.32;;;9.90;99.90;;;;;;5055997;28;20146;-63
2022/12/24 12:48:07;;;;;;;57.72;6.30;;;9.90;99.90;;;;;;5049451;28;20100;-66
2022/12/24 12:50:39;;;;;;;52.28;6.30;;;9.90;99.90;;;;;;5060235;28;20049;-66
2022/12/24 12:53:29;;;;;;;42.40;6.07;;;9.90;99.90;;;;;;5046561;28;20068;-66
2022/12/24 12:56:02;;;;;;;57.28;7.75;;;9.80;99.90;;;;;;5057898;28;20048;-67
2022/12/24 12:58:42;;;;;;;;;;;9.80;99.90;;;;;;5029265;28;20033;-66
2022/12/24 13:01:12;;;;;;;56.83;7.60;;;9.90;99.90;;;;;;5044358;28;19925;-67
2022/12/24 13:04:02;;;;;;;61.15;7.88;;;10.00;99.90;;;;;;5061902;28;20491;-67
2022/12/24 13:06:57;;;;;;;48.13;6.60;;;10.10;99.90;;;;;;5051842;28;20041;-66
2022/12/24 13:09:48;;;;;;;50.72;6.35;;;10.10;99.90;;;;;;5047686;28;20442;-64